KPAM/PAM METAR and TAF weather

Enter ICAO airport designator
Station Type Date Time Source
KPAM METAR 2021/08/05 03:56 UTC NOAA

KPAM 050356Z AUTO 08005KT 10SM OVC080 25/22 A2997 RMK AO2 SLP152 T02500221 $


Station Type Date Time Source
KPAM Decoded METAR 2021/08/05 03:56 UTC NOAA

Tyndall Air Force Base, FL, United States (KPAM) 30-04N 085-35W 13M
Aug 04, 2021 - 11:56 PM EDT / 2021.08.05 0356 UTC
Wind: from the E (080 degrees) at 6 MPH (5 KT):0
Visibility: 10 mile(s):0
Sky conditions: overcast
Temperature: 77.0 F (25.0 C)
Dew Point: 71.8 F (22.1 C)
Relative Humidity: 83%
Pressure (altimeter): 29.97 in. Hg (1014 hPa)
ob: KPAM 050356Z AUTO 08005KT 10SM OVC080 25/22 A2997 RMK AO2 SLP152 T02500221
cycle: 4

Station Type Date Time Source
KPAM TAF 2021/08/04 22:07 UTC NOAA

TAF
AMD KPAM 042200Z 0422/0601 03009KT 9999 SCT030 QNH2989INS
TEMPO 0422/0423 22012G18KT 6000 -TSRA BKN015CB
BECMG 0422/0423 22006KT 9999 VCTS BKN020CB QNH2990INS
BECMG 0501/0502 06006KT 9999 NSW SCT030 QNH2995INS TX31/0519Z TN23/0508Z LAST NO
AMDS AFT 0422Z NEXT 0511Z

Example: see airport list